Time;durP1;ratioP1;P1;durP2;ratioP2;P2;SDS_P1;SDS_P2;PMS_P1;PMS_P2;Temp;Humidity;BMP_temperature;BMP_pressure;BME280_temperature;BME280_humidity;BME280_pressure;Samples;Min_cycle;Max_cycle;Signal;HPM_P1;HPM_P2
2022/05/17 00:01:14;;;;;;;12.25;3.78;;;;;;;;;;4360725;32;20270;-70
2022/05/17 00:03:39;;;;;;;10.85;4.60;;;;;;;;;;4359562;32;20062;-69
2022/05/17 00:06:06;;;;;;;14.68;4.70;;;;;;;;;;4360637;32;20054;-69
2022/05/17 00:08:31;;;;;;;11.70;5.05;;;;;;;;;;4353758;32;20062;-70
2022/05/17 00:10:56;;;;;;;11.25;4.43;;;;;;;;;;4330560;33;20361;-70
2022/05/17 00:13:21;;;;;;;7.55;3.37;;;;;;;;;;4327932;33;20071;-70
2022/05/17 00:15:48;;;;;;;12.43;3.47;;;;;;;;;;4329917;33;20036;-70
2022/05/17 00:18:14;;;;;;;9.98;4.10;;;;;;;;;;4331378;33;20141;-70
2022/05/17 00:20:41;;;;;;;11.35;3.80;;;;;;;;;;4331672;33;20062;-70
2022/05/17 00:23:07;;;;;;;19.27;5.68;;;;;;;;;;4350487;32;20035;-70
2022/05/17 00:25:33;;;;;;;10.65;3.90;;;;;;;;;;4352765;32;20073;-70
2022/05/17 00:27:59;;;;;;;10.32;3.95;;;;;;;;;;4344469;33;20032;-70
2022/05/17 00:30:24;;;;;;;13.18;4.25;;;;;;;;;;4344651;33;20052;-70
2022/05/17 00:32:49;;;;;;;9.02;3.67;;;;;;;;;;4330419;33;20066;-70
2022/05/17 00:35:15;;;;;;;10.35;3.62;;;;;;;;;;4345037;33;20083;-70
2022/05/17 00:37:41;;;;;;;11.50;3.92;;;;;;;;;;4347955;27;20055;-69
2022/05/17 00:40:06;;;;;;;11.75;4.22;;;;;;;;;;4348345;32;20107;-69
2022/05/17 00:42:31;;;;;;;9.25;4.00;;;;;;;;;;4346799;33;20071;-69
2022/05/17 00:44:57;;;;;;;9.38;4.10;;;;;;;;;;4347586;33;20016;-68
2022/05/17 00:47:30;;;;;;;11.55;3.95;;;;;;;;;;4346582;33;20046;-69
2022/05/17 00:49:58;;;;;;;15.30;4.28;;;;;;;;;;4346084;33;20028;-69
2022/05/17 00:52:26;;;;;;;11.73;4.37;;;;;;;;;;4349517;32;20057;-69
2022/05/17 00:54:53;;;;;;;11.50;4.40;;;;;;;;;;4346109;32;20081;-68
2022/05/17 00:57:36;;;;;;;8.50;3.85;;;;;;;;;;4348035;32;20050;-69
2022/05/17 01:00:04;;;;;;;14.75;4.22;;;;;;;;;;4346278;33;20515;-69
2022/05/17 01:02:29;;;;;;;9.43;3.65;;;;;;;;;;4348194;33;20039;-68
2022/05/17 01:04:55;;;;;;;11.80;4.37;;;;;;;;;;4347137;33;20464;-69
2022/05/17 01:07:23;;;;;;;11.32;4.05;;;;;;;;;;4363033;32;20027;-68
2022/05/17 01:09:48;;;;;;;11.73;4.22;;;;;;;;;;4361729;32;20400;-68
2022/05/17 01:12:14;;;;;;;13.55;4.68;;;;;;;;;;4361025;32;20040;-68
2022/05/17 01:14:58;;;;;;;17.52;4.45;;;;;;;;;;4372499;32;20023;-69
2022/05/17 01:17:27;;;;;;;10.30;4.35;;;;;;;;;;4362288;32;20462;-69
2022/05/17 01:19:52;;;;;;;8.82;4.00;;;;;;;;;;4361063;32;20420;-69
2022/05/17 01:22:17;;;;;;;10.60;4.25;;;;;;;;;;4360065;32;20020;-69
2022/05/17 01:24:43;;;;;;;11.07;4.12;;;;;;;;;;4362097;32;20088;-69
2022/05/17 01:27:14;;;;;;;11.60;4.30;;;;;;;;;;4362218;32;20526;-69
2022/05/17 01:29:40;;;;;;;13.30;4.82;;;;;;;;;;4362169;32;20027;-67
2022/05/17 01:32:05;;;;;;;9.82;4.35;;;;;;;;;;4361553;32;20137;-68
2022/05/17 01:34:30;;;;;;;7.62;4.70;;;;;;;;;;4360843;32;20058;-68
2022/05/17 01:36:56;;;;;;;12.43;4.62;;;;;;;;;;4348053;32;20021;-69
2022/05/17 01:39:21;;;;;;;13.85;5.35;;;;;;;;;;4345339;33;20574;-68
2022/05/17 01:41:46;;;;;;;13.20;5.60;;;;;;;;;;4345750;33;20020;-68
2022/05/17 01:44:11;;;;;;;8.55;5.03;;;;;;;;;;4347306;33;20093;-68
2022/05/17 01:46:36;;;;;;;19.08;6.00;;;;;;;;;;4358469;32;20154;-68
2022/05/17 01:49:02;;;;;;;18.52;6.18;;;;;;;;;;4347320;33;20155;-68
2022/05/17 01:51:27;;;;;;;10.65;5.53;;;;;;;;;;4355718;33;20111;-69
2022/05/17 01:53:52;;;;;;;14.98;5.78;;;;;;;;;;4360665;32;20023;-69
2022/05/17 01:56:17;;;;;;;14.75;6.65;;;;;;;;;;4361414;32;20016;-68
2022/05/17 01:58:42;;;;;;;12.93;5.70;;;;;;;;;;4359833;32;20071;-68
2022/05/17 02:01:09;;;;;;;13.23;5.20;;;;;;;;;;4360204;33;20020;-69
2022/05/17 02:03:34;;;;;;;14.40;6.03;;;;;;;;;;4360292;32;20440;-69
2022/05/17 02:05:59;;;;;;;14.87;5.60;;;;;;;;;;4360397;32;20019;-68
2022/05/17 02:08:25;;;;;;;15.27;6.40;;;;;;;;;;4361223;32;20050;-69
2022/05/17 02:10:50;;;;;;;15.88;5.55;;;;;;;;;;4361969;32;20050;-69
2022/05/17 02:13:16;;;;;;;15.48;6.47;;;;;;;;;;4360899;32;20031;-68
2022/05/17 02:15:42;;;;;;;14.18;5.72;;;;;;;;;;4361647;32;20055;-68
2022/05/17 02:18:07;;;;;;;13.25;6.30;;;;;;;;;;4361497;32;20050;-68
2022/05/17 02:20:33;;;;;;;12.52;5.43;;;;;;;;;;4359864;32;20081;-69
2022/05/17 02:23:00;;;;;;;15.23;6.03;;;;;;;;;;4360853;32;20073;-69
2022/05/17 02:25:25;;;;;;;11.57;5.55;;;;;;;;;;4361903;32;20061;-69
2022/05/17 02:27:50;;;;;;;10.57;5.65;;;;;;;;;;4361463;32;20019;-68
2022/05/17 02:30:16;;;;;;;15.90;4.97;;;;;;;;;;4361727;32;20353;-69
2022/05/17 02:32:41;;;;;;;10.50;5.07;;;;;;;;;;4361710;32;20108;-68
2022/05/17 02:35:07;;;;;;;12.57;5.85;;;;;;;;;;4361019;32;20432;-68
2022/05/17 02:37:32;;;;;;;10.85;5.45;;;;;;;;;;4359842;32;20345;-69
2022/05/17 02:39:57;;;;;;;9.98;5.18;;;;;;;;;;4360045;32;20023;-69
2022/05/17 02:42:22;;;;;;;14.27;6.40;;;;;;;;;;4361295;32;20150;-68
2022/05/17 02:44:48;;;;;;;10.73;5.18;;;;;;;;;;4361887;32;20110;-68
2022/05/17 02:47:13;;;;;;;16.67;5.57;;;;;;;;;;4359220;33;20147;-69
2022/05/17 02:49:40;;;;;;;12.05;5.78;;;;;;;;;;4361796;32;20095;-68
2022/05/17 02:52:05;;;;;;;12.20;5.68;;;;;;;;;;4360189;33;20398;-69
2022/05/17 02:54:31;;;;;;;13.13;4.90;;;;;;;;;;4360760;33;20116;-68
2022/05/17 02:56:56;;;;;;;12.63;6.28;;;;;;;;;;4361527;32;20019;-69
2022/05/17 02:59:21;;;;;;;10.65;4.87;;;;;;;;;;4359500;32;20085;-69
2022/05/17 03:01:47;;;;;;;11.45;4.95;;;;;;;;;;4361908;32;20339;-68
2022/05/17 03:04:13;;;;;;;9.07;5.07;;;;;;;;;;4363761;32;20081;-68
2022/05/17 03:06:38;;;;;;;9.70;5.90;;;;;;;;;;4362942;33;20089;-70
2022/05/17 03:09:04;;;;;;;8.85;5.22;;;;;;;;;;4363106;32;20031;-69
2022/05/17 03:11:29;;;;;;;17.23;6.68;;;;;;;;;;4364288;32;20413;-70
2022/05/17 03:13:54;;;;;;;15.03;5.80;;;;;;;;;;4363953;32;20102;-69
2022/05/17 03:16:19;;;;;;;13.05;6.57;;;;;;;;;;4362548;32;20482;-69
2022/05/17 03:18:44;;;;;;;12.00;6.25;;;;;;;;;;4364241;32;20097;-69
2022/05/17 03:21:09;;;;;;;12.40;5.97;;;;;;;;;;4364028;32;20032;-68
2022/05/17 03:23:35;;;;;;;15.32;7.43;;;;;;;;;;4363158;32;20049;-68
2022/05/17 03:26:00;;;;;;;14.20;7.07;;;;;;;;;;4364926;32;20028;-69
2022/05/17 03:28:25;;;;;;;17.10;7.90;;;;;;;;;;4364473;32;20031;-68
2022/05/17 03:30:50;;;;;;;20.15;8.07;;;;;;;;;;4363186;33;20561;-68
2022/05/17 03:33:15;;;;;;;11.23;6.53;;;;;;;;;;4364787;32;20326;-68
2022/05/17 03:35:40;;;;;;;14.82;7.62;;;;;;;;;;4363454;32;20460;-68
2022/05/17 03:38:06;;;;;;;15.35;7.82;;;;;;;;;;4373758;32;20153;-67
2022/05/17 03:40:32;;;;;;;17.27;7.68;;;;;;;;;;4362907;32;20058;-68
2022/05/17 03:42:57;;;;;;;13.80;7.03;;;;;;;;;;4364488;32;20361;-69
2022/05/17 03:45:22;;;;;;;10.73;7.70;;;;;;;;;;4364238;32;20101;-68
2022/05/17 03:47:47;;;;;;;14.27;8.60;;;;;;;;;;4360944;33;20128;-69
2022/05/17 03:50:13;;;;;;;14.25;8.02;;;;;;;;;;4362292;32;20410;-67
2022/05/17 03:52:39;;;;;;;12.23;7.47;;;;;;;;;;4362642;32;20394;-69
2022/05/17 03:55:05;;;;;;;14.57;7.82;;;;;;;;;;4362015;32;20027;-68
2022/05/17 03:57:30;;;;;;;11.88;8.15;;;;;;;;;;4361140;32;20035;-69
2022/05/17 03:59:56;;;;;;;15.80;8.13;;;;;;;;;;4361634;32;20046;-68
2022/05/17 04:02:22;;;;;;;13.10;7.53;;;;;;;;;;4363221;32;20047;-68
2022/05/17 04:04:47;;;;;;;15.07;7.15;;;;;;;;;;4361672;32;20432;-68
2022/05/17 04:07:12;;;;;;;13.70;7.60;;;;;;;;;;4363815;32;20019;-68
2022/05/17 04:09:37;;;;;;;13.90;7.35;;;;;;;;;;4362130;32;20032;-68
2022/05/17 04:12:03;;;;;;;13.77;7.55;;;;;;;;;;4361029;32;20177;-68
2022/05/17 04:14:29;;;;;;;16.10;7.78;;;;;;;;;;4361117;32;20073;-69
2022/05/17 04:16:54;;;;;;;13.95;6.80;;;;;;;;;;4361988;32;20020;-69
2022/05/17 04:19:19;;;;;;;11.27;7.00;;;;;;;;;;4363694;32;20024;-68
2022/05/17 04:21:44;;;;;;;10.90;6.62;;;;;;;;;;4363078;32;20579;-69
2022/05/17 04:24:10;;;;;;;15.25;6.50;;;;;;;;;;4362780;32;20414;-69
2022/05/17 04:26:35;;;;;;;14.32;6.87;;;;;;;;;;4362067;32;20393;-68
2022/05/17 04:29:01;;;;;;;16.20;6.60;;;;;;;;;;4363241;32;20023;-69
2022/05/17 04:31:26;;;;;;;14.15;6.28;;;;;;;;;;4363600;32;20019;-67
2022/05/17 04:33:51;;;;;;;11.98;6.47;;;;;;;;;;4364696;32;20456;-68
2022/05/17 04:36:16;;;;;;;13.05;5.85;;;;;;;;;;4374540;32;20027;-67
2022/05/17 04:38:41;;;;;;;13.27;6.20;;;;;;;;;;4362901;32;20408;-69
2022/05/17 04:41:07;;;;;;;12.30;5.70;;;;;;;;;;4363075;32;20369;-68
2022/05/17 04:43:32;;;;;;;14.20;5.70;;;;;;;;;;4361486;32;20142;-69
2022/05/17 04:45:57;;;;;;;14.38;6.18;;;;;;;;;;4362893;32;20035;-68
2022/05/17 04:48:25;;;;;;;12.40;5.50;;;;;;;;;;4361378;32;20322;-69
2022/05/17 04:50:51;;;;;;;13.40;6.00;;;;;;;;;;4361392;32;20027;-70
2022/05/17 04:53:16;;;;;;;14.65;5.97;;;;;;;;;;4360928;32;20417;-69
2022/05/17 04:55:41;;;;;;;12.68;5.25;;;;;;;;;;4362623;32;20032;-68
2022/05/17 04:58:06;;;;;;;15.17;6.20;;;;;;;;;;4356816;33;20385;-68
2022/05/17 05:00:32;;;;;;;11.68;5.12;;;;;;;;;;4348485;33;20116;-68
2022/05/17 05:02:57;;;;;;;12.15;5.70;;;;;;;;;;4346538;33;20036;-69
2022/05/17 05:05:23;;;;;;;11.75;5.03;;;;;;;;;;4361387;32;20131;-68
2022/05/17 05:07:48;;;;;;;11.98;4.65;;;;;;;;;;4360068;32;20038;-70
2022/05/17 05:10:13;;;;;;;15.00;5.55;;;;;;;;;;4363072;32;20024;-68
2022/05/17 05:12:39;;;;;;;15.07;5.03;;;;;;;;;;4361277;32;20170;-68
2022/05/17 05:15:04;;;;;;;8.45;4.10;;;;;;;;;;4361011;32;20432;-68
2022/05/17 05:17:30;;;;;;;17.92;5.25;;;;;;;;;;4360250;32;20031;-68
2022/05/17 05:19:55;;;;;;;11.75;5.03;;;;;;;;;;4360945;32;20405;-67
2022/05/17 05:22:20;;;;;;;9.52;4.93;;;;;;;;;;4360002;32;20051;-68
2022/05/17 05:24:46;;;;;;;9.38;4.95;;;;;;;;;;4362594;32;20036;-68
2022/05/17 05:27:11;;;;;;;11.15;4.22;;;;;;;;;;4352846;32;20182;-68
2022/05/17 05:29:36;;;;;;;8.50;4.27;;;;;;;;;;4356320;32;20081;-70
2022/05/17 05:32:01;;;;;;;12.52;4.28;;;;;;;;;;4361466;32;20177;-68
2022/05/17 05:34:27;;;;;;;13.18;4.62;;;;;;;;;;4361262;32;20413;-69
2022/05/17 05:36:53;;;;;;;14.15;4.62;;;;;;;;;;4359381;32;20015;-69
2022/05/17 05:39:18;;;;;;;12.98;4.22;;;;;;;;;;4354447;32;20062;-68
2022/05/17 05:41:44;;;;;;;11.12;4.45;;;;;;;;;;4360494;32;20085;-69
2022/05/17 05:44:09;;;;;;;12.85;4.65;;;;;;;;;;4359260;32;20135;-69
2022/05/17 05:46:34;;;;;;;14.52;4.82;;;;;;;;;;4358634;32;20019;-69
2022/05/17 05:49:00;;;;;;;12.07;4.67;;;;;;;;;;4360986;32;20019;-68
2022/05/17 05:51:25;;;;;;;9.57;3.10;;;;;;;;;;4347218;32;20147;-68
2022/05/17 05:53:50;;;;;;;15.25;4.00;;;;;;;;;;4345459;32;20048;-66
2022/05/17 05:56:15;;;;;;;15.35;3.70;;;;;;;;;;4346603;32;20323;-69
2022/05/17 05:58:42;;;;;;;15.52;4.03;;;;;;;;;;4347318;33;20094;-68
2022/05/17 06:01:08;;;;;;;18.27;4.03;;;;;;;;;;4359801;32;20469;-67
2022/05/17 06:03:33;;;;;;;10.23;3.60;;;;;;;;;;4360814;32;20019;-68
2022/05/17 06:05:59;;;;;;;8.32;3.12;;;;;;;;;;4359391;32;20023;-69
2022/05/17 06:08:24;;;;;;;11.57;3.60;;;;;;;;;;4360976;32;20459;-70
2022/05/17 06:10:49;;;;;;;12.95;4.95;;;;;;;;;;4358478;32;20019;-68
2022/05/17 06:13:16;;;;;;;12.10;4.03;;;;;;;;;;4359656;32;20346;-67
2022/05/17 06:15:41;;;;;;;9.32;3.45;;;;;;;;;;4357973;32;20019;-68
2022/05/17 06:18:07;;;;;;;16.58;3.92;;;;;;;;;;4361202;32;20315;-69
2022/05/17 06:20:33;;;;;;;10.32;2.92;;;;;;;;;;4360287;32;20015;-69
2022/05/17 06:22:58;;;;;;;12.45;3.58;;;;;;;;;;4358567;32;20031;-69
2022/05/17 06:25:23;;;;;;;11.55;3.28;;;;;;;;;;4359247;32;20102;-69
2022/05/17 06:27:49;;;;;;;13.23;3.58;;;;;;;;;;4361213;32;20020;-68
2022/05/17 06:30:14;;;;;;;12.82;3.67;;;;;;;;;;4360508;32;20102;-69
2022/05/17 06:32:40;;;;;;;11.95;2.87;;;;;;;;;;4359264;32;20125;-69
2022/05/17 06:35:06;;;;;;;12.45;3.33;;;;;;;;;;4358817;32;20103;-68
2022/05/17 06:37:31;;;;;;;16.87;4.45;;;;;;;;;;4358039;32;20373;-68
2022/05/17 06:39:57;;;;;;;11.95;3.78;;;;;;;;;;4358273;33;20028;-69
2022/05/17 06:42:22;;;;;;;9.40;3.25;;;;;;;;;;4358197;32;20106;-69
2022/05/17 06:44:47;;;;;;;16.87;2.90;;;;;;;;;;4358300;32;20819;-68
2022/05/17 06:47:12;;;;;;;20.23;5.43;;;;;;;;;;4355382;32;20031;-69
2022/05/17 06:49:39;;;;;;;16.40;4.53;;;;;;;;;;4359416;32;20166;-69
2022/05/17 06:52:06;;;;;;;14.48;3.60;;;;;;;;;;4360086;32;20177;-68
2022/05/17 06:54:31;;;;;;;11.40;3.08;;;;;;;;;;4356748;32;20070;-68
2022/05/17 06:56:57;;;;;;;17.35;4.60;;;;;;;;;;4358718;32;20432;-69
2022/05/17 06:59:22;;;;;;;12.80;3.30;;;;;;;;;;4363971;32;20107;-68
2022/05/17 07:01:49;;;;;;;11.50;3.10;;;;;;;;;;4358651;32;20062;-67
2022/05/17 07:04:14;;;;;;;13.30;3.95;;;;;;;;;;4357486;32;20031;-68
2022/05/17 07:06:40;;;;;;;14.18;4.40;;;;;;;;;;4359104;33;20098;-72
2022/05/17 07:09:05;;;;;;;18.40;4.53;;;;;;;;;;4359114;32;20043;-68
2022/05/17 07:14:15;;;;;;;11.15;3.17;;;;;;;;;;4360922;33;20074;-68
2022/05/17 07:16:40;;;;;;;12.90;2.80;;;;;;;;;;4359964;33;20053;-68
2022/05/17 07:19:05;;;;;;;11.48;3.37;;;;;;;;;;4365224;32;20036;-68
2022/05/17 07:21:30;;;;;;;7.82;2.75;;;;;;;;;;4371636;32;20132;-68
2022/05/17 07:23:55;;;;;;;14.18;3.67;;;;;;;;;;4358808;32;20415;-69
2022/05/17 07:26:21;;;;;;;16.00;3.10;;;;;;;;;;4359040;32;20281;-68
2022/05/17 07:28:47;;;;;;;9.98;2.62;;;;;;;;;;4360154;32;20015;-68
2022/05/17 07:31:13;;;;;;;9.35;3.30;;;;;;;;;;4359330;32;20050;-69
2022/05/17 07:33:38;;;;;;;9.60;2.62;;;;;;;;;;4358275;32;20114;-69
2022/05/17 07:36:04;;;;;;;10.35;3.25;;;;;;;;;;4359143;32;20019;-68
2022/05/17 07:38:29;;;;;;;8.40;3.53;;;;;;;;;;4358662;32;20400;-68
2022/05/17 07:40:55;;;;;;;12.97;3.03;;;;;;;;;;4360287;32;20031;-69
2022/05/17 07:43:20;;;;;;;11.52;2.75;;;;;;;;;;4360558;32;20465;-68
2022/05/17 07:45:49;;;;;;;9.98;2.00;;;;;;;;;;4347668;32;20019;-69
2022/05/17 07:48:15;;;;;;;6.37;2.20;;;;;;;;;;4353305;32;20046;-69
2022/05/17 07:50:40;;;;;;;5.62;2.35;;;;;;;;;;4360775;32;20094;-69
2022/05/17 07:53:09;;;;;;;10.43;3.28;;;;;;;;;;4361518;32;20019;-69
2022/05/17 07:55:35;;;;;;;6.47;2.50;;;;;;;;;;4363650;32;20140;-68
2022/05/17 07:58:01;;;;;;;8.88;2.20;;;;;;;;;;4359963;32;20111;-69
2022/05/17 08:00:26;;;;;;;7.50;2.30;;;;;;;;;;4361553;32;20023;-68
2022/05/17 08:02:53;;;;;;;8.98;2.92;;;;;;;;;;4360501;32;20091;-69
2022/05/17 08:05:18;;;;;;;7.20;2.20;;;;;;;;;;4363291;32;20034;-69
2022/05/17 08:07:43;;;;;;;7.75;2.58;;;;;;;;;;4362689;32;20027;-69
2022/05/17 08:10:09;;;;;;;7.70;2.77;;;;;;;;;;4361873;32;20063;-69
2022/05/17 08:12:34;;;;;;;5.65;2.17;;;;;;;;;;4361036;32;20116;-68
2022/05/17 08:14:59;;;;;;;5.82;2.78;;;;;;;;;;4363364;32;20035;-69
2022/05/17 08:17:24;;;;;;;10.05;2.92;;;;;;;;;;4361223;32;20020;-69
2022/05/17 08:19:49;;;;;;;6.05;2.42;;;;;;;;;;4363836;32;20114;-68
2022/05/17 08:22:15;;;;;;;9.23;2.67;;;;;;;;;;4375779;32;20046;-68
2022/05/17 08:27:37;;;;;;;7.57;2.90;;;;;;;;;;4377693;32;20077;-69
2022/05/17 08:30:06;;;;;;;9.63;3.47;;;;;;;;;;4378014;32;20078;-68
2022/05/17 08:35:15;;;;;;;8.52;3.12;;;;;;;;;;4378101;32;20061;-69
2022/05/17 08:37:40;;;;;;;5.95;2.70;;;;;;;;;;4377460;32;20024;-69
2022/05/17 08:40:06;;;;;;;11.27;3.40;;;;;;;;;;4375645;32;20501;-69
2022/05/17 08:42:47;;;;;;;7.15;3.20;;;;;;;;;;4371549;32;20094;-69
2022/05/17 08:45:16;;;;;;;6.15;3.10;;;;;;;;;;4360970;32;20027;-69
2022/05/17 08:47:49;;;;;;;5.30;2.70;;;;;;;;;;4359268;32;20045;-69
2022/05/17 08:50:18;;;;;;;8.23;3.25;;;;;;;;;;4376071;32;20074;-68
2022/05/17 08:52:43;;;;;;;6.82;3.00;;;;;;;;;;4376921;32;20060;-68
2022/05/17 08:55:24;;;;;;;8.35;3.22;;;;;;;;;;4376039;32;20023;-70
2022/05/17 08:57:52;;;;;;;8.15;3.05;;;;;;;;;;4373472;32;20027;-69
2022/05/17 09:00:22;;;;;;;12.00;4.00;;;;;;;;;;4374574;32;20057;-68
2022/05/17 09:03:13;;;;;;;8.32;3.67;;;;;;;;;;4375693;32;20057;-69
2022/05/17 09:06:03;;;;;;;7.87;3.22;;;;;;;;;;4376889;32;20023;-70
2022/05/17 09:08:33;;;;;;;7.68;3.15;;;;;;;;;;4377514;32;20049;-72
2022/05/17 09:11:17;;;;;;;8.13;3.55;;;;;;;;;;4376303;32;20054;-71
2022/05/17 09:13:59;;;;;;;8.88;3.37;;;;;;;;;;4364175;32;20093;-71
2022/05/17 09:16:25;;;;;;;6.65;2.80;;;;;;;;;;4362423;32;20109;-70
2022/05/17 09:18:51;;;;;;;11.23;4.18;;;;;;;;;;4371989;32;20397;-70
2022/05/17 09:21:32;;;;;;;8.90;3.40;;;;;;;;;;4359451;32;20020;-70
2022/05/17 09:23:59;;;;;;;8.20;3.50;;;;;;;;;;4359783;32;20093;-69
2022/05/17 09:26:24;;;;;;;6.78;3.67;;;;;;;;;;4360574;32;20027;-69
2022/05/17 09:28:51;;;;;;;11.23;4.10;;;;;;;;;;4360641;32;20023;-69
2022/05/17 09:31:25;;;;;;;8.68;3.47;;;;;;;;;;4361976;32;20035;-69
2022/05/17 09:33:50;;;;;;;10.55;3.83;;;;;;;;;;4360624;32;20072;-69
2022/05/17 09:36:29;;;;;;;6.97;3.62;;;;;;;;;;4360396;32;20085;-68
2022/05/17 09:38:54;;;;;;;14.75;4.75;;;;;;;;;;4359685;32;20097;-70
2022/05/17 09:41:22;;;;;;;6.30;3.65;;;;;;;;;;4361086;32;20366;-68
2022/05/17 09:44:06;;;;;;;8.98;4.55;;;;;;;;;;4360272;32;20053;-69
2022/05/17 09:46:33;;;;;;;8.43;4.18;;;;;;;;;;4361111;32;20057;-70
2022/05/17 09:54:43;;;;;;;12.90;4.82;;;;;;;;;;4360880;32;20050;-70
2022/05/17 09:57:13;;;;;;;16.08;4.82;;;;;;;;;;4360412;32;20019;-69
2022/05/17 09:59:38;;;;;;;12.50;4.90;;;;;;;;;;4360095;32;20035;-69
2022/05/17 10:02:04;;;;;;;12.23;5.18;;;;;;;;;;4359448;32;20045;-68
2022/05/17 10:04:30;;;;;;;8.15;4.18;;;;;;;;;;4358542;32;20035;-70
2022/05/17 10:06:56;;;;;;;10.65;4.25;;;;;;;;;;4359594;33;20341;-70
2022/05/17 10:09:29;;;;;;;10.63;5.07;;;;;;;;;;4359432;32;20045;-69
2022/05/17 10:11:58;;;;;;;12.25;4.80;;;;;;;;;;4358961;32;20073;-70
2022/05/17 10:14:33;;;;;;;13.30;5.12;;;;;;;;;;4359759;32;20093;-68
2022/05/17 10:17:03;;;;;;;7.97;4.20;;;;;;;;;;4361467;32;20093;-69
2022/05/17 10:19:29;;;;;;;9.80;5.20;;;;;;;;;;4361193;32;20124;-69
2022/05/17 10:21:57;;;;;;;11.00;5.03;;;;;;;;;;4359865;32;20405;-69
2022/05/17 10:24:29;;;;;;;9.13;5.70;;;;;;;;;;4359794;32;20091;-68
2022/05/17 10:27:03;;;;;;;7.22;4.62;;;;;;;;;;4361480;32;20304;-69
2022/05/17 10:29:39;;;;;;;12.05;6.70;;;;;;;;;;4360548;32;20052;-69
2022/05/17 10:32:04;;;;;;;;;;;;;;;;;;4359848;32;20027;-69
2022/05/17 10:34:48;;;;;;;14.63;6.07;;;;;;;;;;4360032;32;19934;-70
2022/05/17 10:37:19;;;;;;;8.32;5.90;;;;;;;;;;4359526;32;20065;-71
2022/05/17 10:40:03;;;;;;;10.82;6.20;;;;;;;;;;4359784;32;20482;-69
2022/05/17 10:42:28;;;;;;;11.77;5.70;;;;;;;;;;4361068;32;20448;-69
2022/05/17 10:44:56;;;;;;;10.55;5.80;;;;;;;;;;4358014;33;20027;-69
2022/05/17 10:47:26;;;;;;;11.15;6.32;;;;;;;;;;4359105;32;20060;-69
2022/05/17 10:50:05;;;;;;;9.65;5.90;;;;;;;;;;4359772;32;20377;-69
2022/05/17 10:52:41;;;;;;;17.02;6.57;;;;;;;;;;4360742;32;20106;-69
2022/05/17 10:55:12;;;;;;;9.25;6.10;;;;;;;;;;4359438;33;20047;-69
2022/05/17 10:57:57;;;;;;;9.40;6.12;;;;;;;;;;4358328;32;20016;-69
2022/05/17 11:00:26;;;;;;;10.38;6.15;;;;;;;;;;4360938;32;20061;-69
2022/05/17 11:02:51;;;;;;;16.48;7.55;;;;;;;;;;4359403;32;20161;-68
2022/05/17 11:05:22;;;;;;;10.27;6.68;;;;;;;;;;4359599;32;20039;-70
2022/05/17 11:08:06;;;;;;;11.93;6.90;;;;;;;;;;4358439;32;20081;-69
2022/05/17 11:10:43;;;;;;;14.63;7.12;;;;;;;;;;4357777;32;20027;-69
2022/05/17 11:13:12;;;;;;;10.60;6.72;;;;;;;;;;4358230;32;20030;-69
2022/05/17 11:15:40;;;;;;;12.32;6.93;;;;;;;;;;4358023;32;20094;-69
2022/05/17 11:18:11;;;;;;;14.30;6.28;;;;;;;;;;4359295;32;20482;-69
2022/05/17 11:20:55;;;;;;;10.05;6.43;;;;;;;;;;4357674;32;20398;-70
2022/05/17 11:23:32;;;;;;;12.90;6.75;;;;;;;;;;4362939;32;20393;-70
2022/05/17 11:26:04;;;;;;;10.93;6.82;;;;;;;;;;4361818;32;20381;-69
2022/05/17 11:28:51;;;;;;;10.60;6.78;;;;;;;;;;4360484;32;20326;-70
2022/05/17 11:31:36;;;;;;;14.32;7.12;;;;;;;;;;4363490;32;20370;-69
2022/05/17 11:34:27;;;;;;;14.05;5.95;;;;;;;;;;4362187;32;20069;-70
2022/05/17 11:36:54;;;;;;;12.20;6.37;;;;;;;;;;4370071;32;20480;-69
2022/05/17 11:39:32;;;;;;;15.88;6.87;;;;;;;;;;4359991;32;20039;-69
2022/05/17 11:42:10;;;;;;;11.30;6.43;;;;;;;;;;4362341;32;20039;-70
2022/05/17 11:44:45;;;;;;;11.02;6.28;;;;;;;;;;4361939;32;20117;-70
2022/05/17 11:47:30;;;;;;;13.95;5.93;;;;;;;;;;4363901;32;20041;-68
2022/05/17 11:50:20;;;;;;;11.07;6.30;;;;;;;;;;4363141;32;20365;-70
2022/05/17 11:52:46;;;;;;;9.50;6.12;;;;;;;;;;4361126;32;20016;-68
2022/05/17 11:55:12;;;;;;;9.27;5.03;;;;;;;;;;4361688;32;20361;-70
2022/05/17 11:57:38;;;;;;;13.05;5.62;;;;;;;;;;4361403;32;20027;-70
2022/05/17 12:00:07;;;;;;;11.73;6.50;;;;;;;;;;4360450;32;20073;-71
2022/05/17 12:02:53;;;;;;;18.65;6.62;;;;;;;;;;4348407;33;20082;-70
2022/05/17 12:05:37;;;;;;;10.00;5.25;;;;;;;;;;4362718;32;20023;-70
2022/05/17 12:08:21;;;;;;;31.42;9.63;;;;;;;;;;4360404;32;20106;-70
2022/05/17 12:10:47;;;;;;;17.50;6.60;;;;;;;;;;4359908;32;20448;-71
2022/05/17 12:13:14;;;;;;;11.60;6.85;;;;;;;;;;4362910;32;20085;-70
2022/05/17 12:15:50;;;;;;;12.90;7.12;;;;;;;;;;4359814;32;20046;-69
2022/05/17 12:18:23;;;;;;;11.65;5.05;;;;;;;;;;4362267;32;20102;-69
2022/05/17 12:21:08;;;;;;;15.85;6.40;;;;;;;;;;4361514;32;20054;-69
2022/05/17 12:23:37;;;;;;;16.07;5.60;;;;;;;;;;4362299;32;20051;-70
2022/05/17 12:26:06;;;;;;;7.97;5.40;;;;;;;;;;4362179;32;20028;-71
2022/05/17 12:28:52;;;;;;;11.85;5.60;;;;;;;;;;4362248;32;20141;-69
2022/05/17 12:31:25;;;;;;;9.63;6.28;;;;;;;;;;4363474;32;20035;-70
2022/05/17 12:33:51;;;;;;;15.18;6.20;;;;;;;;;;4361821;32;20054;-69
2022/05/17 12:36:21;;;;;;;11.40;6.07;;;;;;;;;;4361255;32;20051;-69
2022/05/17 12:44:27;;;;;;;11.98;5.20;;;;;;;;;;4361848;32;20107;-70
2022/05/17 12:46:54;;;;;;;15.15;6.70;;;;;;;;;;4360622;32;20452;-69
2022/05/17 12:49:23;;;;;;;7.57;5.40;;;;;;;;;;4361283;32;20027;-69
2022/05/17 12:51:52;;;;;;;9.73;5.75;;;;;;;;;;4362449;32;20110;-69
2022/05/17 12:54:21;;;;;;;10.88;6.80;;;;;;;;;;4360820;32;20119;-70
2022/05/17 12:56:47;;;;;;;11.52;6.00;;;;;;;;;;4361871;32;20054;-69
2022/05/17 12:59:13;;;;;;;8.85;5.07;;;;;;;;;;4359807;32;20062;-69
2022/05/17 13:01:39;;;;;;;10.77;5.55;;;;;;;;;;4361185;32;20057;-69
2022/05/17 13:04:07;;;;;;;12.10;5.90;;;;;;;;;;4361859;32;20094;-69
2022/05/17 13:06:37;;;;;;;12.85;6.97;;;;;;;;;;4362470;32;20062;-69
2022/05/17 13:09:03;;;;;;;10.70;5.97;;;;;;;;;;4361345;32;20070;-70
2022/05/17 13:11:28;;;;;;;9.45;5.00;;;;;;;;;;4361008;32;20050;-70
2022/05/17 13:13:58;;;;;;;10.13;5.12;;;;;;;;;;4359177;32;20069;-69
2022/05/17 13:16:30;;;;;;;14.52;5.95;;;;;;;;;;4362074;32;20028;-70
2022/05/17 13:18:56;;;;;;;10.20;5.62;;;;;;;;;;4361121;32;20405;-71
2022/05/17 13:21:23;;;;;;;12.20;5.18;;;;;;;;;;4361569;32;20054;-70
2022/05/17 13:23:49;;;;;;;8.35;5.03;;;;;;;;;;4360400;32;20067;-70
2022/05/17 13:26:19;;;;;;;15.05;6.35;;;;;;;;;;4360531;32;20042;-70
2022/05/17 13:28:45;;;;;;;12.37;5.43;;;;;;;;;;4362019;32;20058;-70
2022/05/17 13:31:14;;;;;;;15.50;4.35;;;;;;;;;;4360416;32;20089;-70
2022/05/17 13:33:42;;;;;;;15.25;6.65;;;;;;;;;;4371979;32;20389;-70
2022/05/17 13:36:07;;;;;;;12.60;5.30;;;;;;;;;;4359742;32;20098;-70
2022/05/17 13:38:33;;;;;;;13.07;6.30;;;;;;;;;;4359143;32;20067;-70
2022/05/17 13:40:59;;;;;;;9.48;4.35;;;;;;;;;;4361428;32;20150;-70
2022/05/17 13:43:31;;;;;;;9.55;4.90;;;;;;;;;;4361388;32;20028;-72
2022/05/17 13:46:08;;;;;;;9.30;4.40;;;;;;;;;;4360608;32;20027;-70
2022/05/17 13:48:34;;;;;;;13.88;5.43;;;;;;;;;;4360591;32;20057;-71
2022/05/17 13:51:00;;;;;;;11.70;4.00;;;;;;;;;;4360582;32;20023;-71
2022/05/17 13:53:29;;;;;;;9.93;4.05;;;;;;;;;;4361125;32;20137;-70
2022/05/17 13:55:54;;;;;;;8.85;4.40;;;;;;;;;;4362667;32;20129;-69
2022/05/17 13:58:22;;;;;;;11.17;4.97;;;;;;;;;;4376424;32;20397;-69
2022/05/17 14:00:57;;;;;;;9.38;3.60;;;;;;;;;;4371554;32;20173;-70
2022/05/17 14:03:23;;;;;;;14.20;3.92;;;;;;;;;;4374409;32;20027;-69
2022/05/17 14:05:51;;;;;;;6.25;3.55;;;;;;;;;;4374651;32;20027;-69
2022/05/17 14:13:47;;;;;;;10.88;3.28;;;;;;;;;;4368510;32;19950;-70
2022/05/17 14:16:15;;;;;;;8.02;3.30;;;;;;;;;;4370984;32;20055;-70
2022/05/17 14:18:41;;;;;;;6.25;3.28;;;;;;;;;;4360495;32;20031;-70
2022/05/17 14:21:08;;;;;;;9.88;3.78;;;;;;;;;;4361223;32;20089;-70
2022/05/17 14:23:35;;;;;;;10.07;4.15;;;;;;;;;;4380179;32;20080;-70
2022/05/17 14:26:00;;;;;;;10.85;3.87;;;;;;;;;;4374485;32;20032;-70
2022/05/17 14:28:25;;;;;;;8.55;4.35;;;;;;;;;;4375997;32;20417;-70
2022/05/17 14:30:51;;;;;;;10.18;3.87;;;;;;;;;;4373201;32;20023;-71
2022/05/17 14:33:17;;;;;;;10.52;4.80;;;;;;;;;;4374845;32;20019;-67
2022/05/17 14:35:42;;;;;;;10.48;4.43;;;;;;;;;;4374924;32;20240;-69
2022/05/17 14:38:08;;;;;;;9.35;5.05;;;;;;;;;;4373617;32;20089;-69
2022/05/17 14:40:33;;;;;;;13.70;4.75;;;;;;;;;;4374046;32;20341;-70
2022/05/17 14:42:58;;;;;;;10.25;5.30;;;;;;;;;;4358018;32;20042;-69
2022/05/17 14:45:24;;;;;;;13.03;5.50;;;;;;;;;;4361256;32;20054;-70
2022/05/17 14:47:49;;;;;;;8.13;4.53;;;;;;;;;;4361019;32;20123;-69
2022/05/17 14:50:18;;;;;;;9.75;5.15;;;;;;;;;;4361230;32;20040;-70
2022/05/17 14:52:43;;;;;;;14.55;5.75;;;;;;;;;;4360987;32;20028;-71
2022/05/17 14:55:10;;;;;;;11.32;5.15;;;;;;;;;;4359505;32;20054;-70
2022/05/17 14:57:37;;;;;;;11.80;5.28;;;;;;;;;;4360453;32;20027;-70
2022/05/17 15:00:02;;;;;;;8.70;5.12;;;;;;;;;;4361060;32;20047;-71
2022/05/17 15:02:28;;;;;;;11.27;5.70;;;;;;;;;;4362306;32;20031;-70